createdAt,value
2023-05-03T00:01:18.296Z,46.30
2023-05-03T00:04:07.614Z,46.30
2023-05-03T00:06:57.002Z,46.30
2023-05-03T00:09:46.719Z,46.30
2023-05-03T00:12:35.982Z,46.20
2023-05-03T00:15:26.924Z,46.30
2023-05-03T00:18:16.184Z,46.30
2023-05-03T00:21:05.654Z,46.30
2023-05-03T00:23:54.978Z,46.30
2023-05-03T00:26:44.238Z,46.30
2023-05-03T00:29:33.738Z,46.30
2023-05-03T00:32:24.525Z,46.30
2023-05-03T00:35:13.811Z,46.40
2023-05-03T00:38:03.099Z,46.30
2023-05-03T00:40:55.851Z,46.30
2023-05-03T00:43:45.187Z,46.30
2023-05-03T00:46:34.591Z,46.20
2023-05-03T00:49:26.849Z,46.20
2023-05-03T00:52:17.155Z,46.20
2023-05-03T00:55:09.627Z,46.10
2023-05-03T00:57:59.064Z,46.10
2023-05-03T01:00:49.392Z,45.90
2023-05-03T01:03:41.286Z,45.90
2023-05-03T01:06:43.402Z,45.90
2023-05-03T01:09:39.626Z,45.90
2023-05-03T01:12:42.806Z,45.80
2023-05-03T01:15:47.027Z,45.90
2023-05-03T01:18:44.122Z,45.80
2023-05-03T01:21:35.656Z,45.70
2023-05-03T01:24:27.617Z,45.60
2023-05-03T01:27:19.335Z,45.60
2023-05-03T01:30:11.453Z,45.60
2023-05-03T01:33:07.022Z,45.60
2023-05-03T01:36:05.357Z,45.70
2023-05-03T01:38:55.722Z,45.60
2023-05-03T01:41:45.912Z,45.60
2023-05-03T01:44:37.849Z,45.50
2023-05-03T01:47:28.262Z,45.60
2023-05-03T01:50:18.098Z,45.50
2023-05-03T01:53:07.508Z,45.50
2023-05-03T01:55:56.951Z,45.60
2023-05-03T01:58:46.304Z,45.50
2023-05-03T02:01:37.026Z,45.50
2023-05-03T02:04:26.495Z,45.50
2023-05-03T02:07:15.932Z,45.50
2023-05-03T02:10:06.269Z,45.60
2023-05-03T02:12:55.697Z,45.50
2023-05-03T02:15:45.091Z,45.50
2023-05-03T02:18:35.778Z,45.50
2023-05-03T02:21:25.110Z,45.50
2023-05-03T02:24:14.418Z,45.50
2023-05-03T02:27:05.448Z,45.40
2023-05-03T02:29:56.278Z,45.50
2023-05-03T02:32:46.438Z,45.40
2023-05-03T02:35:37.808Z,45.50
2023-05-03T02:38:28.254Z,45.60
2023-05-03T02:41:17.589Z,45.60
2023-05-03T02:44:06.988Z,45.50
2023-05-03T02:46:57.280Z,45.60
2023-05-03T02:49:48.316Z,45.70
2023-05-03T02:52:39.488Z,45.70
2023-05-03T02:55:29.003Z,45.80
2023-05-03T02:58:18.525Z,45.80
2023-05-03T03:01:08.247Z,45.90
2023-05-03T03:03:57.755Z,45.90
2023-05-03T03:06:47.202Z,45.90
2023-05-03T03:09:38.963Z,45.90
2023-05-03T03:12:29.051Z,46.00
2023-05-03T03:15:19.021Z,46.00
2023-05-03T03:18:08.511Z,46.00
2023-05-03T03:20:58.655Z,46.10
2023-05-03T03:23:48.292Z,45.90
2023-05-03T03:26:39.015Z,45.90
2023-05-03T03:29:29.813Z,45.90
2023-05-03T03:32:19.142Z,45.90
2023-05-03T03:35:10.106Z,46.40
2023-05-03T03:37:59.685Z,45.80
2023-05-03T03:40:49.601Z,45.80
2023-05-03T03:43:40.696Z,45.70
2023-05-03T03:46:35.474Z,45.70
2023-05-03T03:49:24.916Z,45.70
2023-05-03T03:52:14.305Z,45.80
2023-05-03T03:55:03.714Z,45.90
2023-05-03T03:57:53.160Z,45.90
2023-05-03T04:00:44.681Z,46.00
2023-05-03T04:03:38.167Z,46.10
2023-05-03T04:06:28.961Z,46.10
2023-05-03T04:09:19.478Z,46.10
2023-05-03T04:12:09.108Z,46.10
2023-05-03T04:14:58.541Z,46.10
2023-05-03T04:17:49.691Z,46.10
2023-05-03T04:20:39.275Z,46.20
2023-05-03T04:23:30.329Z,46.20
2023-05-03T04:26:31.121Z,46.20
2023-05-03T04:29:26.439Z,46.20
2023-05-03T04:32:17.015Z,46.20
2023-05-03T04:35:10.765Z,46.20
2023-05-03T04:38:01.819Z,46.40
2023-05-03T04:40:53.436Z,46.30
2023-05-03T04:43:43.091Z,46.30
2023-05-03T04:46:33.062Z,46.40
2023-05-03T04:49:22.487Z,46.50
2023-05-03T04:52:14.378Z,46.50
2023-05-03T04:55:03.827Z,46.50
2023-05-03T04:57:53.459Z,46.50
2023-05-03T05:00:43.344Z,46.70
2023-05-03T05:03:38.472Z,46.70
2023-05-03T05:06:33.320Z,46.70
2023-05-03T05:09:27.201Z,46.80
2023-05-03T05:12:18.871Z,46.80
2023-05-03T05:15:10.142Z,46.90
2023-05-03T05:17:59.691Z,46.90
2023-05-03T05:20:49.480Z,46.90
2023-05-03T05:23:38.995Z,47.00
2023-05-03T05:26:30.388Z,47.10
2023-05-03T05:29:19.769Z,47.20
2023-05-03T05:32:09.794Z,47.30
2023-05-03T05:34:59.552Z,47.40
2023-05-03T05:37:50.524Z,47.60
2023-05-03T05:40:40.269Z,47.60
2023-05-03T05:43:31.834Z,47.70
2023-05-03T05:46:22.080Z,47.70
2023-05-03T05:49:12.788Z,47.60
2023-05-03T05:52:02.184Z,47.60
2023-05-03T05:54:51.825Z,47.50
2023-05-03T05:57:42.012Z,47.40
2023-05-03T06:00:35.152Z,47.60
2023-05-03T06:03:24.842Z,47.60
2023-05-03T06:06:14.358Z,47.80
2023-05-03T06:09:16.794Z,48.00
2023-05-03T06:12:13.139Z,48.00
2023-05-03T06:15:07.206Z,48.30
2023-05-03T06:18:00.990Z,48.70
2023-05-03T06:20:51.165Z,48.80
2023-05-03T06:23:42.166Z,48.70
2023-05-03T06:26:32.300Z,48.70
2023-05-03T06:29:21.669Z,48.70
2023-05-03T06:32:11.254Z,48.30
2023-05-03T06:35:02.258Z,48.10
2023-05-03T06:37:52.153Z,48.30
2023-05-03T06:40:42.409Z,49.30
2023-05-03T06:43:31.868Z,50.50
2023-05-03T06:46:26.297Z,51.80
2023-05-03T06:49:15.634Z,52.30
2023-05-03T06:52:07.803Z,52.60
2023-05-03T06:54:59.040Z,52.80
2023-05-03T06:57:48.829Z,53.10
2023-05-03T07:00:39.149Z,53.10
2023-05-03T07:03:28.579Z,52.40
2023-05-03T07:06:18.428Z,51.50
2023-05-03T07:09:09.828Z,50.80
2023-05-03T07:11:59.172Z,50.30
2023-05-03T07:14:48.546Z,50.10
2023-05-03T07:17:38.059Z,49.40
2023-05-03T07:20:27.570Z,49.10
2023-05-03T07:23:17.180Z,48.60
2023-05-03T07:26:08.127Z,47.80
2023-05-03T07:28:57.430Z,46.90
2023-05-03T07:31:46.837Z,46.60
2023-05-03T07:34:36.288Z,45.90
2023-05-03T07:37:27.800Z,45.60
2023-05-03T07:40:17.372Z,45.00
2023-05-03T07:43:10.066Z,44.50
2023-05-03T07:45:59.422Z,43.80
2023-05-03T07:48:48.852Z,43.70
2023-05-03T07:51:38.446Z,43.50
2023-05-03T07:54:27.798Z,43.40
2023-05-03T07:57:17.897Z,43.10
2023-05-03T08:00:12.447Z,42.90
2023-05-03T08:03:03.920Z,42.20
2023-05-03T08:05:53.393Z,42.60
2023-05-03T08:08:42.769Z,42.20
2023-05-03T08:11:32.159Z,41.80
2023-05-03T08:14:21.967Z,41.60
2023-05-03T08:17:12.718Z,41.30
2023-05-03T08:20:02.577Z,40.60
2023-05-03T08:22:52.486Z,40.70
2023-05-03T08:25:42.300Z,40.60
2023-05-03T08:31:21.471Z,39.00
2023-05-03T08:34:13.278Z,38.10
2023-05-03T08:37:04.384Z,36.50
2023-05-03T08:39:53.744Z,35.40
2023-05-03T08:42:45.605Z,35.20
2023-05-03T08:45:35.049Z,35.40
2023-05-03T08:48:24.921Z,35.80
2023-05-03T08:51:16.008Z,35.90
2023-05-03T08:54:05.824Z,35.90
2023-05-03T08:56:55.235Z,36.20
2023-05-03T08:59:50.865Z,36.00
2023-05-03T09:02:40.707Z,34.70
2023-05-03T09:05:39.077Z,35.70
2023-05-03T09:08:30.861Z,34.20
2023-05-03T09:11:24.848Z,34.90
2023-05-03T09:14:16.881Z,34.40
2023-05-03T09:17:17.964Z,35.10
2023-05-03T09:20:09.984Z,33.50
2023-05-03T09:22:59.409Z,34.40
2023-05-03T09:26:08.263Z,33.00
2023-05-03T09:29:00.571Z,30.70
2023-05-03T09:32:01.040Z,31.00
2023-05-03T09:34:50.575Z,29.70
2023-05-03T09:37:40.029Z,30.70
2023-05-03T09:40:29.953Z,30.90
2023-05-03T09:43:20.630Z,31.40
2023-05-03T09:46:11.702Z,31.40
2023-05-03T09:49:01.437Z,30.70
2023-05-03T09:51:50.980Z,30.60
2023-05-03T09:54:41.049Z,30.60
2023-05-03T09:57:31.916Z,30.90
2023-05-03T10:00:24.964Z,30.60
2023-05-03T10:03:21.691Z,30.90
2023-05-03T10:06:28.101Z,31.70
2023-05-03T10:09:25.461Z,31.00
2023-05-03T10:12:17.453Z,30.40
2023-05-03T10:15:10.808Z,30.10
2023-05-03T10:18:06.695Z,29.70
2023-05-03T10:21:03.696Z,28.80
2023-05-03T10:24:13.730Z,28.80
2023-05-03T10:27:03.958Z,28.40
2023-05-03T10:29:54.007Z,29.60
2023-05-03T10:32:44.592Z,29.70
2023-05-03T10:35:35.425Z,29.80
2023-05-03T10:38:26.114Z,29.60
2023-05-03T10:41:15.492Z,29.60
2023-05-03T10:44:05.236Z,29.20
2023-05-03T10:46:55.795Z,29.30
2023-05-03T10:49:45.725Z,29.20
2023-05-03T10:52:49.882Z,29.20
2023-05-03T10:55:39.377Z,28.60
2023-05-03T10:58:28.851Z,29.60
2023-05-03T11:01:19.908Z,29.60
2023-05-03T11:04:15.051Z,29.20
2023-05-03T11:07:04.646Z,28.90
2023-05-03T11:09:55.427Z,28.80
2023-05-03T11:12:44.754Z,28.50
2023-05-03T11:15:34.365Z,28.40
2023-05-03T11:18:28.497Z,27.90
2023-05-03T11:21:18.047Z,27.20
2023-05-03T11:24:08.298Z,26.70
2023-05-03T11:26:59.006Z,26.50
2023-05-03T11:29:51.006Z,26.20
2023-05-03T11:32:41.104Z,26.00
2023-05-03T11:35:31.957Z,25.80
2023-05-03T11:38:21.352Z,25.90
2023-05-03T11:41:16.348Z,25.90
2023-05-03T11:44:17.285Z,26.10
2023-05-03T11:47:08.037Z,26.20
2023-05-03T11:49:58.900Z,26.40
2023-05-03T11:52:48.282Z,26.70
2023-05-03T11:55:40.560Z,26.80
2023-05-03T11:58:29.955Z,27.00
2023-05-03T12:01:22.736Z,27.10
2023-05-03T12:04:14.479Z,27.20
2023-05-03T12:07:05.415Z,27.20
2023-05-03T12:10:09.496Z,27.20
2023-05-03T12:13:04.816Z,27.10
2023-05-03T12:19:02.709Z,27.30
2023-05-03T12:21:59.214Z,27.30
2023-05-03T12:25:04.139Z,27.40
2023-05-03T12:28:14.865Z,27.40
2023-05-03T12:31:05.985Z,27.50
2023-05-03T12:34:20.120Z,27.60
2023-05-03T12:37:06.689Z,27.60
2023-05-03T12:40:16.610Z,27.70
2023-05-03T12:43:06.430Z,27.70
2023-05-03T12:48:55.204Z,27.70
2023-05-03T12:51:55.538Z,27.80
2023-05-03T12:54:56.149Z,27.90
2023-05-03T12:57:46.555Z,27.90
2023-05-03T13:01:03.360Z,28.10
2023-05-03T13:04:08.114Z,28.10
2023-05-03T13:07:03.069Z,28.20
2023-05-03T13:12:45.690Z,28.20
2023-05-03T13:15:37.625Z,28.30
2023-05-03T13:18:27.067Z,28.40
2023-05-03T13:21:16.893Z,28.50
2023-05-03T13:24:08.776Z,28.50
2023-05-03T13:26:58.122Z,28.60
2023-05-03T13:29:49.378Z,28.50
2023-05-03T13:32:39.067Z,28.50
2023-05-03T13:35:28.540Z,28.60
2023-05-03T13:38:17.937Z,28.70
2023-05-03T13:41:09.537Z,28.70
2023-05-03T13:43:58.929Z,28.80
2023-05-03T13:46:48.366Z,28.80
2023-05-03T13:49:37.699Z,28.90
2023-05-03T13:52:27.156Z,29.10
2023-05-03T13:55:16.790Z,29.20
2023-05-03T13:58:07.498Z,29.00
2023-05-03T14:00:56.916Z,29.10
2023-05-03T14:03:46.407Z,29.20
2023-05-03T14:06:37.703Z,29.20
2023-05-03T14:09:29.605Z,29.20
2023-05-03T14:12:18.950Z,29.30
2023-05-03T14:15:10.904Z,29.20
2023-05-03T14:18:03.152Z,29.30
2023-05-03T14:20:55.062Z,29.30
2023-05-03T14:23:45.002Z,29.30
2023-05-03T14:26:34.929Z,29.30
2023-05-03T14:29:24.258Z,29.40
2023-05-03T14:32:15.496Z,29.40
2023-05-03T14:35:05.182Z,29.50
2023-05-03T14:37:54.837Z,29.50
2023-05-03T14:40:44.483Z,29.60
2023-05-03T14:43:33.948Z,29.50
2023-05-03T14:46:23.341Z,29.50
2023-05-03T14:49:17.576Z,29.50
2023-05-03T14:52:07.629Z,29.70
2023-05-03T14:54:57.008Z,29.70
2023-05-03T14:57:46.340Z,29.70
2023-05-03T15:00:39.648Z,29.60
2023-05-03T15:03:29.089Z,29.70
2023-05-03T15:06:28.680Z,29.70
2023-05-03T15:09:18.319Z,29.90
2023-05-03T15:12:08.723Z,29.80
2023-05-03T15:14:58.053Z,29.80
2023-05-03T15:17:47.430Z,29.80
2023-05-03T15:20:36.931Z,29.70
2023-05-03T15:23:27.683Z,29.70
2023-05-03T15:26:17.500Z,29.70
2023-05-03T15:29:06.886Z,29.80
2023-05-03T15:31:56.152Z,29.90
2023-05-03T15:34:45.609Z,29.90
2023-05-03T15:37:37.502Z,29.90
2023-05-03T15:40:28.947Z,30.00
2023-05-03T15:43:18.827Z,30.00
2023-05-03T15:46:08.420Z,30.00
2023-05-03T15:48:57.699Z,30.00
2023-05-03T15:51:46.991Z,30.10
2023-05-03T15:54:36.369Z,30.20
2023-05-03T15:57:27.728Z,30.30
2023-05-03T16:00:20.258Z,30.30
2023-05-03T16:03:09.610Z,30.30
2023-05-03T16:05:59.807Z,30.30
2023-05-03T16:08:49.134Z,30.40
2023-05-03T16:11:38.549Z,30.40
2023-05-03T16:14:29.292Z,30.40
2023-05-03T16:17:18.633Z,30.40
2023-05-03T16:20:10.830Z,30.20
2023-05-03T16:23:00.248Z,30.30
2023-05-03T16:25:49.660Z,30.50
2023-05-03T16:28:38.972Z,30.40
2023-05-03T16:31:30.750Z,30.40
2023-05-03T16:34:20.090Z,30.40
2023-05-03T16:37:09.374Z,30.40
2023-05-03T16:39:58.928Z,30.40
2023-05-03T16:42:50.756Z,30.40
2023-05-03T16:45:40.139Z,30.50
2023-05-03T16:48:31.740Z,30.30
2023-05-03T16:51:22.610Z,30.40
2023-05-03T16:54:12.051Z,30.50
2023-05-03T16:57:02.177Z,30.60
2023-05-03T16:59:51.548Z,30.60
2023-05-03T17:02:41.283Z,30.60
2023-05-03T17:05:35.087Z,30.60
2023-05-03T17:08:25.307Z,30.70
2023-05-03T17:11:16.122Z,30.80
2023-05-03T17:14:05.837Z,30.80
2023-05-03T17:16:55.210Z,30.80
2023-05-03T17:19:44.604Z,30.90
2023-05-03T17:22:36.087Z,30.80
2023-05-03T17:25:25.814Z,31.00
2023-05-03T17:28:15.084Z,31.10
2023-05-03T17:31:06.370Z,31.00
2023-05-03T17:33:55.946Z,31.10
2023-05-03T17:36:45.301Z,31.10
2023-05-03T17:39:36.320Z,31.20
2023-05-03T17:42:25.926Z,31.30
2023-05-03T17:45:15.521Z,31.20
2023-05-03T17:48:05.634Z,31.30
2023-05-03T17:50:59.666Z,31.40
2023-05-03T17:53:49.054Z,31.60
2023-05-03T17:56:39.741Z,31.40
2023-05-03T17:59:29.120Z,31.60
2023-05-03T18:02:18.508Z,31.50
2023-05-03T18:05:08.401Z,31.70
2023-05-03T18:07:57.780Z,31.70
2023-05-03T18:10:47.152Z,31.80
2023-05-03T18:13:37.854Z,31.80
2023-05-03T18:16:27.296Z,31.90
2023-05-03T18:19:16.677Z,32.00
2023-05-03T18:22:08.156Z,32.00
2023-05-03T18:24:59.092Z,32.10
2023-05-03T18:27:48.378Z,32.10
2023-05-03T18:30:39.117Z,32.10
2023-05-03T18:33:28.443Z,32.20
2023-05-03T18:36:18.467Z,32.20
2023-05-03T18:39:08.722Z,32.20
2023-05-03T18:41:59.026Z,32.30
2023-05-03T18:44:48.563Z,32.40
2023-05-03T18:47:39.282Z,32.40
2023-05-03T18:50:28.715Z,32.40
2023-05-03T18:53:18.072Z,32.50
2023-05-03T18:56:07.480Z,32.50
2023-05-03T18:58:56.870Z,32.50
2023-05-03T19:01:46.216Z,32.60
2023-05-03T19:04:37.048Z,32.80
2023-05-03T19:07:26.436Z,32.80
2023-05-03T19:10:16.875Z,32.70
2023-05-03T19:13:07.442Z,32.90
2023-05-03T19:15:56.769Z,32.90
2023-05-03T19:18:46.223Z,32.90
2023-05-03T19:21:42.210Z,33.10
2023-05-03T19:24:31.779Z,33.10
2023-05-03T19:27:21.106Z,33.10
2023-05-03T19:30:11.377Z,33.10
2023-05-03T19:33:00.926Z,33.20
2023-05-03T19:35:50.335Z,33.30
2023-05-03T19:38:41.181Z,33.30
2023-05-03T19:41:30.516Z,33.40
2023-05-03T19:44:19.890Z,33.50
2023-05-03T19:47:09.148Z,33.50
2023-05-03T19:49:58.907Z,33.50
2023-05-03T19:52:48.229Z,33.60
2023-05-03T19:55:39.088Z,33.60
2023-05-03T19:58:29.009Z,33.70
2023-05-03T20:01:18.466Z,33.70
2023-05-03T20:04:08.234Z,33.70
2023-05-03T20:06:57.939Z,33.70
2023-05-03T20:09:47.207Z,33.90
2023-05-03T20:12:38.095Z,33.90
2023-05-03T20:15:28.471Z,34.10
2023-05-03T20:18:17.795Z,34.00
2023-05-03T20:21:07.152Z,34.00
2023-05-03T20:23:56.859Z,34.10
2023-05-03T20:26:46.155Z,34.30
2023-05-03T20:29:36.908Z,34.30
2023-05-03T20:32:27.109Z,34.40
2023-05-03T20:35:16.978Z,34.40
2023-05-03T20:38:06.369Z,34.50
2023-05-03T20:40:55.658Z,34.70
2023-05-03T20:43:44.971Z,34.80
2023-05-03T20:46:38.404Z,34.80
2023-05-03T20:49:27.709Z,35.00
2023-05-03T20:52:17.276Z,34.90
2023-05-03T20:55:07.486Z,35.00
2023-05-03T20:57:56.883Z,35.10
2023-05-03T21:00:46.230Z,35.10
2023-05-03T21:03:37.085Z,35.30
2023-05-03T21:06:27.280Z,35.40
2023-05-03T21:09:17.316Z,35.40
2023-05-03T21:12:07.410Z,35.40
2023-05-03T21:14:56.898Z,35.50
2023-05-03T21:17:46.237Z,35.50
2023-05-03T21:20:37.659Z,35.60
2023-05-03T21:23:27.084Z,35.70
2023-05-03T21:26:16.378Z,35.70
2023-05-03T21:29:06.694Z,35.70
2023-05-03T21:31:56.050Z,35.80
2023-05-03T21:34:45.892Z,35.80
2023-05-03T21:37:36.971Z,35.70
2023-05-03T21:40:26.302Z,36.10
2023-05-03T21:43:16.617Z,35.90
2023-05-03T21:46:08.457Z,36.00
2023-05-03T21:48:58.319Z,36.00
2023-05-03T21:51:47.715Z,35.80
2023-05-03T21:54:38.349Z,36.10
2023-05-03T21:57:27.805Z,36.20
2023-05-03T22:00:19.982Z,36.20
2023-05-03T22:03:10.060Z,36.30
2023-05-03T22:05:59.405Z,36.30
2023-05-03T22:08:49.225Z,36.40
2023-05-03T22:11:40.202Z,36.40
2023-05-03T22:14:29.524Z,36.60
2023-05-03T22:17:18.920Z,36.50
2023-05-03T22:20:11.364Z,36.70
2023-05-03T22:23:00.725Z,36.60
2023-05-03T22:25:50.060Z,36.50
2023-05-03T22:28:40.775Z,36.70
2023-05-03T22:31:30.560Z,36.80
2023-05-03T22:34:20.378Z,36.80
2023-05-03T22:37:09.650Z,36.90
2023-05-03T22:39:58.886Z,36.80
2023-05-03T22:42:48.307Z,36.80
2023-05-03T22:45:39.451Z,37.00
2023-05-03T22:48:29.999Z,37.00
2023-05-03T22:51:19.362Z,37.00
2023-05-03T22:54:08.691Z,37.10
2023-05-03T22:56:58.625Z,37.00
2023-05-03T22:59:47.904Z,37.10
2023-05-03T23:02:38.726Z,37.10
2023-05-03T23:05:28.119Z,37.30
2023-05-03T23:08:17.774Z,38.00
2023-05-03T23:11:07.196Z,37.50
2023-05-03T23:13:56.479Z,38.20
2023-05-03T23:16:46.507Z,37.60
2023-05-03T23:19:37.200Z,37.60
2023-05-03T23:22:26.782Z,37.50
2023-05-03T23:25:16.754Z,37.60
2023-05-03T23:28:06.492Z,37.60
2023-05-03T23:30:56.321Z,37.50
2023-05-03T23:33:46.131Z,37.60
2023-05-03T23:36:36.811Z,37.70
2023-05-03T23:39:26.131Z,37.80
2023-05-03T23:42:15.392Z,37.90
2023-05-03T23:45:05.228Z,37.90
2023-05-03T23:47:55.245Z,37.90
2023-05-03T23:50:44.547Z,37.90
2023-05-03T23:53:35.178Z,38.10
2023-05-03T23:56:24.859Z,38.10
2023-05-03T23:59:14.169Z,38.20
